This is the latest recevied weather packets stored in our database for station/object OE5MMP-13. If no packets are shown the sender has not sent any weather packets the latest 10 day(s).
| Time | Temp. | Humidity | Pressure | Rain* | Wind** | Luminosity | Snow |
|---|---|---|---|---|---|---|---|
| 1788339194 | 21.67° C | 59% | 1022.8 hPa | 0 mm | - | 700 W/m² | - |
| 1788338594 | 21.67° C | 58% | 1022.9 hPa | 0 mm | - | 629 W/m² | - |
| 1788337993 | 21.67° C | 59% | 1022.7 hPa | 0 mm | - | 595 W/m² | - |
| 1788337393 | 21.11° C | 60% | 1022.8 hPa | 0 mm | - | 573 W/m² | - |
| 1788336794 | 21.67° C | 60% | 1022.7 hPa | 0 mm | - | 551 W/m² | - |
| 1788336194 | 21.67° C | 59% | 1022.8 hPa | 0 mm | - | 527 W/m² | - |
| 1788335594 | 21.11° C | 59% | 1022.8 hPa | 0 mm | - | 506 W/m² | - |
| 1788334993 | 20.56° C | 59% | 1022.5 hPa | 0 mm | - | 486 W/m² | - |
| 1788334393 | 21.11° C | 61% | 1022.6 hPa | 0 mm | - | 460 W/m² | - |
| 1788333793 | 20.56° C | 61% | 1022.5 hPa | 0 mm | - | 433 W/m² | - |
| 1788333193 | 21.11° C | 61% | 1022.6 hPa | 0 mm | - | 411 W/m² | - |
| 1788332593 | 20.56° C | 62% | 1022.5 hPa | 0 mm | - | 386 W/m² | - |
| 1788331993 | 20° C | 62% | 1022.4 hPa | 0 mm | - | 356 W/m² | - |
| 1788331393 | 19.44° C | 64% | 1022.3 hPa | 0 mm | - | 329 W/m² | - |
| 1788330793 | 18.89° C | 66% | 1022.3 hPa | 0 mm | - | 301 W/m² | - |
| 1788330193 | 17.78° C | 71% | 1022.3 hPa | 0 mm | - | 270 W/m² | - |
| 1788329593 | 17.22° C | 73% | 1022.3 hPa | 0 mm | - | 243 W/m² | - |
| 1788328993 | 16.11° C | 76% | 1022.2 hPa | 0 mm | - | 212 W/m² | - |
| 1788328393 | 15.56° C | 78% | 1022.1 hPa | 0 mm | - | 179 W/m² | - |
| 1788327793 | 15° C | 78% | 1021.9 hPa | 0 mm | - | 147 W/m² | - |
| 1788327193 | 14.44° C | 80% | 1021.9 hPa | 0 mm | - | 116 W/m² | - |
| 1788326593 | 14.44° C | 79% | 1021.9 hPa | 0 mm | - | 87 W/m² | - |
| 1788325992 | 13.89° C | 79% | 1022 hPa | 0 mm | - | 59 W/m² | - |
| 1788325392 | 13.89° C | 78% | 1022 hPa | 0 mm | - | 34 W/m² | - |
| 1788324793 | 13.89° C | 79% | 1022 hPa | 0 mm | - | 21 W/m² | - |
* Rain latest hour (hover to see other rain measurements)
** Current wind speed in m/s (hover to see current wind gust speed)